createdAt,value
2016-12-23T00:00:45.348Z,0
2016-12-23T00:01:45.215Z,0
2016-12-23T00:02:45.147Z,0
2016-12-23T00:03:45.228Z,0
2016-12-23T00:04:45.456Z,0
2016-12-23T00:05:45.410Z,0
2016-12-23T00:06:45.377Z,0
2016-12-23T00:07:46.310Z,0
2016-12-23T00:08:45.390Z,0
2016-12-23T00:09:45.375Z,0
2016-12-23T00:10:45.474Z,0
2016-12-23T00:11:45.406Z,0
2016-12-23T00:12:45.160Z,0
2016-12-23T00:13:45.489Z,0
2016-12-23T00:14:45.510Z,0
2016-12-23T00:15:45.316Z,0
2016-12-23T00:16:45.274Z,0
2016-12-23T00:17:45.291Z,0
2016-12-23T00:18:45.372Z,0
2016-12-23T00:19:45.462Z,0
2016-12-23T00:20:45.365Z,0
2016-12-23T00:21:45.411Z,0
2016-12-23T00:22:45.552Z,0
2016-12-23T00:23:45.189Z,0
2016-12-23T00:24:45.303Z,0
2016-12-23T00:25:45.168Z,0
2016-12-23T00:26:45.347Z,0
2016-12-23T00:27:45.340Z,0
2016-12-23T00:28:45.210Z,0
2016-12-23T00:29:45.116Z,0
2016-12-23T00:30:45.266Z,0
2016-12-23T00:31:45.058Z,0
2016-12-23T00:32:45.402Z,0
2016-12-23T00:33:45.340Z,0
2016-12-23T00:34:45.239Z,0
2016-12-23T00:35:45.211Z,0
2016-12-23T00:36:45.281Z,0
2016-12-23T00:37:44.959Z,0
2016-12-23T00:38:45.089Z,0
2016-12-23T00:39:45.448Z,0
2016-12-23T00:40:45.855Z,0
2016-12-23T00:41:45.249Z,0
2016-12-23T00:42:45.311Z,0
2016-12-23T00:43:45.117Z,0
2016-12-23T00:44:45.141Z,0
2016-12-23T00:45:45.165Z,0
2016-12-23T00:46:45.167Z,0
2016-12-23T00:47:45.206Z,0
2016-12-23T00:48:45.361Z,0
2016-12-23T00:49:46.020Z,0
2016-12-23T00:50:45.429Z,0
2016-12-23T00:51:45.208Z,0
2016-12-23T00:52:45.270Z,0
2016-12-23T00:53:45.192Z,0
2016-12-23T00:54:45.331Z,0
2016-12-23T00:55:45.201Z,0
2016-12-23T00:56:45.547Z,0
2016-12-23T00:57:45.450Z,0
2016-12-23T00:58:45.345Z,0
2016-12-23T00:59:45.355Z,0
2016-12-23T01:00:45.274Z,0
2016-12-23T01:01:45.076Z,0
2016-12-23T01:02:45.234Z,0
2016-12-23T01:03:45.281Z,0
2016-12-23T01:04:45.265Z,0
2016-12-23T01:05:46.557Z,0
2016-12-23T01:06:46.733Z,0
2016-12-23T01:07:46.340Z,0
2016-12-23T01:08:46.148Z,0
2016-12-23T01:09:46.130Z,0
2016-12-23T01:10:45.128Z,0
2016-12-23T01:11:45.211Z,0
2016-12-23T01:12:45.033Z,0
2016-12-23T01:13:45.288Z,0
2016-12-23T01:14:45.258Z,0
2016-12-23T01:15:45.519Z,0
2016-12-23T01:16:45.232Z,0
2016-12-23T01:17:45.154Z,0
2016-12-23T01:18:45.386Z,0
2016-12-23T01:19:45.353Z,0
2016-12-23T01:20:45.252Z,0
2016-12-23T01:21:45.264Z,0
2016-12-23T01:22:45.277Z,0
2016-12-23T01:23:45.206Z,0
2016-12-23T01:24:45.261Z,0
2016-12-23T01:25:45.183Z,0
2016-12-23T01:26:44.961Z,0
2016-12-23T01:27:45.098Z,0
2016-12-23T01:28:44.956Z,0
2016-12-23T01:29:45.089Z,0
2016-12-23T01:30:45.327Z,0
2016-12-23T01:31:45.188Z,0
2016-12-23T01:32:46.809Z,0
2016-12-23T01:33:45.061Z,0
2016-12-23T01:34:45.130Z,0
2016-12-23T01:35:44.961Z,0
2016-12-23T01:36:45.115Z,0
2016-12-23T01:37:45.156Z,0
2016-12-23T01:38:45.313Z,0
2016-12-23T01:39:45.089Z,0
2016-12-23T01:40:45.232Z,0
2016-12-23T01:41:45.182Z,0
2016-12-23T01:42:45.152Z,0
2016-12-23T01:43:45.078Z,0
2016-12-23T01:44:45.197Z,0
2016-12-23T01:45:45.130Z,0
2016-12-23T01:46:45.254Z,0
2016-12-23T01:47:45.370Z,0
2016-12-23T01:48:45.207Z,0
2016-12-23T01:49:45.358Z,0
2016-12-23T01:50:45.492Z,0
2016-12-23T01:51:45.103Z,0
2016-12-23T01:52:45.002Z,0
2016-12-23T01:53:46.167Z,0
2016-12-23T01:54:45.162Z,0
2016-12-23T01:55:44.998Z,0
2016-12-23T01:56:45.113Z,0
2016-12-23T01:57:44.941Z,0
2016-12-23T01:58:45.174Z,0
2016-12-23T01:59:45.180Z,0
2016-12-23T02:00:45.177Z,0
2016-12-23T02:01:45.024Z,0
2016-12-23T02:02:45.065Z,0
2016-12-23T02:03:45.076Z,0
2016-12-23T02:04:45.237Z,0
2016-12-23T02:05:45.193Z,0
2016-12-23T02:06:45.253Z,0
2016-12-23T02:07:45.169Z,0
2016-12-23T02:08:45.055Z,0
2016-12-23T02:09:45.237Z,0
2016-12-23T02:10:45.023Z,0
2016-12-23T02:11:45.122Z,0
2016-12-23T02:12:44.963Z,0
2016-12-23T02:13:45.019Z,0
2016-12-23T02:14:45.181Z,0
2016-12-23T02:15:44.971Z,0
2016-12-23T02:16:45.132Z,0
2016-12-23T02:17:45.183Z,0
2016-12-23T02:18:45.839Z,0
2016-12-23T02:19:45.204Z,0
2016-12-23T02:20:45.268Z,0
2016-12-23T02:21:45.275Z,0
2016-12-23T02:22:45.321Z,0
2016-12-23T02:23:45.369Z,0
2016-12-23T02:24:45.067Z,0
2016-12-23T02:25:45.134Z,0
2016-12-23T02:26:45.150Z,0
2016-12-23T02:27:45.711Z,0
2016-12-23T02:28:44.958Z,0
2016-12-23T02:29:44.964Z,0
2016-12-23T02:30:45.120Z,0
2016-12-23T02:31:45.108Z,0
2016-12-23T02:32:45.241Z,0
2016-12-23T02:33:45.288Z,0
2016-12-23T02:34:45.047Z,0
2016-12-23T02:35:45.029Z,0
2016-12-23T02:36:45.090Z,0
2016-12-23T02:37:45.072Z,0
2016-12-23T02:38:45.083Z,0
2016-12-23T02:39:45.028Z,0
2016-12-23T02:40:45.209Z,0
2016-12-23T02:41:45.102Z,0
2016-12-23T02:42:44.965Z,0
2016-12-23T02:43:45.135Z,0
2016-12-23T02:44:45.166Z,0
2016-12-23T02:45:44.955Z,0
2016-12-23T02:46:45.114Z,0
2016-12-23T02:47:45.058Z,0
2016-12-23T02:48:45.244Z,0
2016-12-23T02:49:45.377Z,0
2016-12-23T02:50:45.229Z,0
2016-12-23T02:51:44.957Z,0
2016-12-23T02:52:45.146Z,0
2016-12-23T02:53:44.873Z,0
2016-12-23T02:54:45.052Z,0
2016-12-23T02:55:45.139Z,0
2016-12-23T02:56:45.166Z,0
2016-12-23T02:57:45.098Z,0
2016-12-23T02:58:45.043Z,0
2016-12-23T02:59:45.117Z,0
2016-12-23T03:00:45.029Z,0
2016-12-23T03:01:45.192Z,0
2016-12-23T03:02:45.225Z,0
2016-12-23T03:03:45.046Z,0
2016-12-23T03:04:45.202Z,0
2016-12-23T03:05:45.879Z,0
2016-12-23T03:06:45.211Z,0
2016-12-23T03:07:45.186Z,0
2016-12-23T03:08:45.064Z,0
2016-12-23T03:09:45.209Z,0
2016-12-23T03:10:45.011Z,0
2016-12-23T03:11:45.062Z,0
2016-12-23T03:12:45.107Z,0
2016-12-23T03:13:44.950Z,0
2016-12-23T03:14:45.168Z,0
2016-12-23T03:15:44.938Z,0
2016-12-23T03:16:45.176Z,0
2016-12-23T03:17:45.353Z,0
2016-12-23T03:18:45.288Z,0
2016-12-23T03:19:45.129Z,0
2016-12-23T03:20:45.137Z,0
2016-12-23T03:21:45.166Z,0
2016-12-23T03:22:45.053Z,0
2016-12-23T03:23:45.198Z,0
2016-12-23T03:24:45.197Z,0
2016-12-23T03:25:45.190Z,0
2016-12-23T03:26:45.220Z,0
2016-12-23T03:27:45.193Z,0
2016-12-23T03:28:45.248Z,0
2016-12-23T03:29:45.002Z,0
2016-12-23T03:30:45.221Z,0
2016-12-23T03:31:45.169Z,0
2016-12-23T03:32:45.041Z,0
2016-12-23T03:33:45.106Z,0
2016-12-23T03:34:45.051Z,0
2016-12-23T03:35:45.159Z,0
2016-12-23T03:36:45.168Z,0
2016-12-23T03:37:45.079Z,0
2016-12-23T03:38:45.312Z,0
2016-12-23T03:39:45.168Z,0
2016-12-23T03:40:45.290Z,0
2016-12-23T03:41:45.208Z,0
2016-12-23T03:42:45.099Z,0
2016-12-23T03:43:46.156Z,0
2016-12-23T03:44:45.347Z,0
2016-12-23T03:45:46.147Z,0
2016-12-23T03:46:45.224Z,0
2016-12-23T03:47:45.055Z,0
2016-12-23T03:48:45.299Z,0
2016-12-23T03:49:45.328Z,0
2016-12-23T03:50:46.549Z,0
2016-12-23T03:51:45.055Z,0
2016-12-23T03:52:45.300Z,0
2016-12-23T03:53:45.261Z,0
2016-12-23T03:59:02.750Z,0
2016-12-23T03:59:14.278Z,0
2016-12-23T04:00:14.200Z,0
2016-12-23T04:01:14.404Z,0
2016-12-23T04:02:13.972Z,0
2016-12-23T04:03:13.930Z,0
2016-12-23T04:04:14.113Z,0
2016-12-23T04:05:14.490Z,0
2016-12-23T04:06:14.929Z,0
2016-12-23T04:07:16.540Z,0
2016-12-23T04:08:14.126Z,0
2016-12-23T04:09:13.989Z,0
2016-12-23T04:10:14.291Z,0
2016-12-23T04:11:13.997Z,0
2016-12-23T04:12:14.011Z,0
2016-12-23T04:13:14.096Z,0
2016-12-23T04:14:13.981Z,0
2016-12-23T04:15:14.072Z,0
2016-12-23T04:16:14.289Z,0
2016-12-23T04:17:14.131Z,0
2016-12-23T04:18:14.269Z,0
2016-12-23T04:19:14.119Z,0
2016-12-23T04:20:14.223Z,0
2016-12-23T04:21:13.990Z,0
2016-12-23T04:22:14.147Z,0
2016-12-23T04:23:14.052Z,0
2016-12-23T04:24:14.121Z,0
2016-12-23T04:25:14.083Z,0
2016-12-23T04:26:13.952Z,0
2016-12-23T04:27:14.165Z,0
2016-12-23T04:28:14.221Z,0
2016-12-23T04:29:14.241Z,0
2016-12-23T04:30:14.120Z,0
2016-12-23T04:31:14.039Z,0
2016-12-23T04:32:14.059Z,0
2016-12-23T04:33:14.090Z,0
2016-12-23T04:34:14.793Z,0
2016-12-23T04:35:14.729Z,0
2016-12-23T04:36:14.393Z,0
2016-12-23T04:37:14.174Z,0
2016-12-23T04:38:14.241Z,0
2016-12-23T04:39:14.200Z,0
2016-12-23T04:40:14.346Z,0
2016-12-23T04:41:14.120Z,0
2016-12-23T04:42:14.401Z,0
2016-12-23T04:43:14.065Z,0
2016-12-23T04:44:14.168Z,0
2016-12-23T04:45:14.299Z,0
2016-12-23T04:46:14.187Z,0
2016-12-23T04:47:14.214Z,0
2016-12-23T04:48:14.269Z,0
2016-12-23T04:49:14.375Z,0
2016-12-23T04:50:14.319Z,0
2016-12-23T04:51:14.211Z,0
2016-12-23T04:52:14.281Z,0
2016-12-23T04:53:14.239Z,0
2016-12-23T04:54:14.147Z,0
2016-12-23T04:55:14.164Z,0
2016-12-23T04:56:14.289Z,0
2016-12-23T04:57:14.219Z,0
2016-12-23T04:58:14.293Z,0
2016-12-23T04:59:14.053Z,0
2016-12-23T05:00:14.343Z,0
2016-12-23T05:01:14.254Z,0
2016-12-23T05:02:14.381Z,0
2016-12-23T05:03:14.180Z,0
2016-12-23T05:04:14.235Z,0
2016-12-23T05:05:14.438Z,0
2016-12-23T05:06:14.248Z,0
2016-12-23T05:07:14.328Z,0
2016-12-23T05:08:14.601Z,0
2016-12-23T05:09:14.191Z,0
2016-12-23T05:10:14.266Z,0
2016-12-23T05:11:14.257Z,0
2016-12-23T05:12:14.357Z,0
2016-12-23T05:13:14.242Z,0
2016-12-23T05:14:14.193Z,0
2016-12-23T05:15:14.278Z,0
2016-12-23T05:16:14.397Z,0
2016-12-23T05:17:14.321Z,0
2016-12-23T05:18:14.387Z,0
2016-12-23T05:19:14.437Z,0
2016-12-23T05:20:14.618Z,0
2016-12-23T05:21:14.605Z,0
2016-12-23T05:22:14.370Z,0
2016-12-23T05:23:14.356Z,0
2016-12-23T05:24:14.343Z,0
2016-12-23T05:25:14.320Z,0
2016-12-23T05:26:24.891Z,0
2016-12-23T05:27:14.597Z,0
2016-12-23T05:28:14.342Z,0
2016-12-23T05:29:14.219Z,0
2016-12-23T05:30:14.172Z,0
2016-12-23T05:31:14.454Z,0
2016-12-23T05:32:14.879Z,0
2016-12-23T05:33:14.219Z,0
2016-12-23T05:34:14.571Z,0
2016-12-23T05:35:14.529Z,0
2016-12-23T05:36:14.126Z,0
2016-12-23T05:37:14.589Z,0
2016-12-23T05:38:15.430Z,0
2016-12-23T05:39:14.459Z,0
2016-12-23T05:40:14.442Z,0
2016-12-23T05:41:14.395Z,0
2016-12-23T05:42:14.644Z,0
2016-12-23T05:43:14.497Z,0
2016-12-23T05:44:14.367Z,0
2016-12-23T05:45:14.500Z,0
2016-12-23T05:46:14.557Z,0
2016-12-23T05:47:14.221Z,0
2016-12-23T05:48:15.071Z,0
2016-12-23T05:49:14.291Z,0
2016-12-23T05:50:14.455Z,0
2016-12-23T05:51:14.443Z,0
2016-12-23T05:52:14.307Z,0
2016-12-23T05:53:14.439Z,0
2016-12-23T05:54:14.388Z,0
2016-12-23T05:55:14.321Z,0
2016-12-23T05:56:14.400Z,0
2016-12-23T05:57:14.737Z,0
2016-12-23T05:58:14.549Z,0
2016-12-23T05:59:14.665Z,0
2016-12-23T06:00:14.553Z,0
2016-12-23T06:01:14.711Z,0
2016-12-23T06:02:14.481Z,0
2016-12-23T06:03:14.490Z,0
2016-12-23T06:04:14.463Z,0
2016-12-23T06:05:14.518Z,0
2016-12-23T06:06:14.343Z,0
2016-12-23T06:07:14.341Z,0
2016-12-23T06:08:14.428Z,0
2016-12-23T06:09:14.892Z,0
2016-12-23T06:10:14.193Z,0
2016-12-23T06:11:14.335Z,0
2016-12-23T06:12:14.389Z,0
2016-12-23T06:13:14.525Z,0
2016-12-23T06:14:15.327Z,0
2016-12-23T06:15:14.795Z,0
2016-12-23T06:16:14.474Z,0
2016-12-23T06:17:14.630Z,0
2016-12-23T06:18:14.383Z,0
2016-12-23T06:19:14.445Z,0
2016-12-23T06:20:14.387Z,0
2016-12-23T06:21:14.644Z,0
2016-12-23T06:22:14.472Z,0
2016-12-23T06:23:14.743Z,0
2016-12-23T06:24:15.326Z,0
2016-12-23T06:25:14.743Z,0
2016-12-23T06:26:14.654Z,0
2016-12-23T06:27:14.398Z,0
2016-12-23T06:28:14.427Z,0
2016-12-23T06:29:14.480Z,0
2016-12-23T06:30:15.212Z,0
2016-12-23T06:31:14.562Z,0
2016-12-23T06:32:16.478Z,0
2016-12-23T06:33:14.329Z,0
2016-12-23T06:34:14.493Z,0
2016-12-23T06:35:14.604Z,0
2016-12-23T06:36:14.484Z,0
2016-12-23T06:37:14.398Z,0
2016-12-23T06:38:14.500Z,0
2016-12-23T06:39:14.358Z,0
2016-12-23T06:40:14.493Z,0
2016-12-23T06:41:14.816Z,0
2016-12-23T06:42:15.192Z,0
2016-12-23T06:43:14.513Z,0
2016-12-23T06:44:15.102Z,0
2016-12-23T06:45:14.651Z,0
2016-12-23T06:46:14.387Z,0
2016-12-23T06:47:14.564Z,0
2016-12-23T06:48:14.475Z,0
2016-12-23T06:49:14.393Z,0
2016-12-23T06:50:14.460Z,0
2016-12-23T06:51:14.519Z,0
2016-12-23T06:52:14.590Z,0
2016-12-23T06:53:14.829Z,0
2016-12-23T06:54:14.519Z,0
2016-12-23T06:55:14.525Z,0
2016-12-23T06:56:14.701Z,0
2016-12-23T06:57:14.200Z,0
2016-12-23T06:58:14.430Z,0
2016-12-23T06:59:14.553Z,0
2016-12-23T07:00:14.391Z,0
2016-12-23T07:01:14.892Z,0
2016-12-23T07:02:14.307Z,0
2016-12-23T07:03:14.475Z,0
2016-12-23T07:04:14.528Z,0
2016-12-23T07:05:14.786Z,0
2016-12-23T07:06:14.656Z,0
2016-12-23T07:07:14.602Z,0
2016-12-23T07:08:14.296Z,0
2016-12-23T07:09:14.334Z,0
2016-12-23T07:10:14.452Z,0
2016-12-23T07:11:14.693Z,0
2016-12-23T07:12:14.884Z,0
2016-12-23T07:13:14.883Z,0
2016-12-23T07:14:14.757Z,0
2016-12-23T07:15:14.621Z,0
2016-12-23T07:16:14.811Z,0
2016-12-23T07:17:14.597Z,0
2016-12-23T07:18:14.718Z,0
2016-12-23T07:19:14.804Z,0
2016-12-23T07:20:14.653Z,0
2016-12-23T07:21:14.868Z,0
2016-12-23T07:22:14.895Z,0
2016-12-23T07:23:14.914Z,0
2016-12-23T07:24:14.774Z,0
2016-12-23T07:25:15.694Z,5
2016-12-23T07:26:14.718Z,5
2016-12-23T07:27:14.853Z,5
2016-12-23T07:28:15.084Z,5
2016-12-23T07:29:15.191Z,5
2016-12-23T07:30:15.202Z,5
2016-12-23T07:31:14.884Z,5
2016-12-23T07:32:14.927Z,5
2016-12-23T07:33:14.854Z,5
2016-12-23T07:34:14.977Z,5
2016-12-23T07:35:14.957Z,5
2016-12-23T07:36:15.169Z,5
2016-12-23T07:37:14.887Z,5
2016-12-23T07:38:14.811Z,5
2016-12-23T07:39:14.926Z,5
2016-12-23T07:40:15.093Z,5
2016-12-23T07:41:14.956Z,5
2016-12-23T07:42:18.202Z,5
2016-12-23T07:43:16.664Z,5
2016-12-23T07:44:19.059Z,5
2016-12-23T07:45:18.010Z,5
2016-12-23T07:46:16.248Z,5
2016-12-23T07:47:15.774Z,10
2016-12-23T07:48:21.038Z,10
2016-12-23T07:49:19.946Z,15
2016-12-23T07:50:16.313Z,15
2016-12-23T07:51:15.432Z,20
2016-12-23T07:52:20.056Z,20
2016-12-23T07:53:17.673Z,20
2016-12-23T07:54:16.174Z,20
2016-12-23T07:55:16.663Z,15
2016-12-23T07:56:16.968Z,15
2016-12-23T07:59:24.795Z,15
2016-12-23T07:59:38.681Z,20
2016-12-23T08:00:38.333Z,20
2016-12-23T08:01:40.543Z,25
2016-12-23T08:02:37.647Z,25
2016-12-23T08:03:37.992Z,30
2016-12-23T08:04:38.617Z,30
2016-12-23T08:05:39.673Z,30
2016-12-23T08:06:40.169Z,30
2016-12-23T08:07:36.671Z,25
2016-12-23T08:08:38.138Z,20
2016-12-23T08:09:38.693Z,15
2016-12-23T08:10:40.443Z,20
2016-12-23T08:11:38.750Z,15
2016-12-23T08:12:36.890Z,20
2016-12-23T08:13:37.468Z,25
2016-12-23T08:14:38.401Z,25
2016-12-23T08:15:39.141Z,30
2016-12-23T08:16:38.301Z,30
2016-12-23T08:17:41.139Z,35
2016-12-23T08:18:38.550Z,35
2016-12-23T08:19:37.420Z,40
2016-12-23T08:20:36.642Z,40
2016-12-23T08:21:36.997Z,40
2016-12-23T08:22:36.787Z,45
2016-12-23T08:23:37.500Z,45
2016-12-23T08:24:36.953Z,45
2016-12-23T08:25:36.951Z,40
2016-12-23T08:26:37.032Z,40
2016-12-23T08:27:36.929Z,40
2016-12-23T08:28:36.906Z,45
2016-12-23T08:29:36.713Z,50
2016-12-23T08:30:36.933Z,65
2016-12-23T08:31:37.178Z,75
2016-12-23T08:32:37.166Z,80
2016-12-23T08:33:37.706Z,80
2016-12-23T08:34:37.295Z,75
2016-12-23T08:35:37.150Z,65
2016-12-23T08:36:36.844Z,65
2016-12-23T08:37:36.717Z,70
2016-12-23T08:38:36.912Z,65
2016-12-23T08:39:37.224Z,65
2016-12-23T08:40:39.003Z,70
2016-12-23T08:41:37.860Z,70
2016-12-23T08:42:36.892Z,75
2016-12-23T08:43:38.622Z,80
2016-12-23T08:44:38.024Z,85
2016-12-23T08:45:36.860Z,75
2016-12-23T08:46:39.487Z,70
2016-12-23T08:47:37.956Z,60
2016-12-23T08:48:36.829Z,60
2016-12-23T08:49:37.054Z,60
2016-12-23T08:50:36.688Z,55
2016-12-23T08:51:36.697Z,55
2016-12-23T08:52:37.008Z,55
2016-12-23T08:53:36.928Z,60
2016-12-23T08:54:36.641Z,55
2016-12-23T08:55:37.134Z,50
2016-12-23T08:56:36.865Z,50
2016-12-23T08:57:37.138Z,55
2016-12-23T08:58:37.122Z,65
2016-12-23T08:59:37.305Z,70
2016-12-23T09:00:36.969Z,70
2016-12-23T09:01:37.176Z,70
2016-12-23T09:02:37.648Z,65
2016-12-23T09:03:37.549Z,55
2016-12-23T09:04:36.745Z,55
2016-12-23T09:05:37.035Z,55
2016-12-23T09:06:37.251Z,55
2016-12-23T09:07:37.168Z,55
2016-12-23T09:08:37.098Z,60
2016-12-23T09:09:37.187Z,70
2016-12-23T09:10:37.533Z,75
2016-12-23T09:11:37.103Z,75
2016-12-23T09:12:37.153Z,75
2016-12-23T09:13:37.000Z,80
2016-12-23T09:14:36.947Z,90
2016-12-23T09:15:36.949Z,95
2016-12-23T09:16:36.888Z,90
2016-12-23T09:17:36.800Z,85
2016-12-23T09:18:36.774Z,85
2016-12-23T09:19:36.685Z,80
2016-12-23T09:20:36.892Z,90
2016-12-23T09:21:36.778Z,90
2016-12-23T09:22:36.686Z,90
2016-12-23T09:23:36.713Z,95
2016-12-23T09:24:37.018Z,100
2016-12-23T09:25:37.427Z,100
2016-12-23T09:26:37.216Z,100
2016-12-23T09:27:38.131Z,105
2016-12-23T09:28:37.281Z,100
2016-12-23T09:29:37.098Z,115
2016-12-23T09:30:37.138Z,125
2016-12-23T09:31:37.348Z,125
2016-12-23T09:32:37.213Z,120
2016-12-23T09:33:37.256Z,125
2016-12-23T09:34:37.398Z,135
2016-12-23T09:35:37.096Z,145
2016-12-23T09:36:37.090Z,145
2016-12-23T09:37:37.276Z,140
2016-12-23T09:38:37.392Z,150
2016-12-23T09:39:38.412Z,160
2016-12-23T09:40:37.170Z,150
2016-12-23T09:41:37.206Z,140
2016-12-23T09:42:37.072Z,140
2016-12-23T09:43:38.159Z,140
2016-12-23T09:44:37.170Z,135
2016-12-23T09:45:37.256Z,135
2016-12-23T09:46:37.098Z,135
2016-12-23T09:47:37.020Z,135
2016-12-23T09:48:37.222Z,130
2016-12-23T09:49:37.041Z,130
2016-12-23T09:50:37.157Z,135
2016-12-23T09:51:37.141Z,145
2016-12-23T09:52:36.958Z,165
2016-12-23T09:53:37.159Z,180
2016-12-23T09:54:37.080Z,195
2016-12-23T09:55:37.272Z,205
2016-12-23T09:56:37.060Z,195
2016-12-23T09:57:36.820Z,130
2016-12-23T09:58:36.855Z,110
2016-12-23T09:59:36.826Z,110
2016-12-23T10:00:37.135Z,125
2016-12-23T10:01:37.156Z,150
2016-12-23T10:02:37.552Z,175
2016-12-23T10:03:37.033Z,205
2016-12-23T10:04:36.760Z,220
2016-12-23T10:05:37.226Z,220
2016-12-23T10:06:36.726Z,185
2016-12-23T10:07:36.844Z,150
2016-12-23T10:08:37.096Z,130
2016-12-23T10:09:37.184Z,110
2016-12-23T10:10:37.505Z,95
2016-12-23T10:11:36.791Z,100
2016-12-23T10:12:36.829Z,125
2016-12-23T10:13:37.027Z,130
2016-12-23T10:14:37.123Z,145
2016-12-23T10:15:37.395Z,160
2016-12-23T10:16:38.594Z,180
2016-12-23T10:17:37.176Z,200
2016-12-23T10:18:37.155Z,220
2016-12-23T10:19:37.070Z,240
2016-12-23T10:20:37.587Z,260
2016-12-23T10:21:37.859Z,275
2016-12-23T10:22:37.497Z,295
2016-12-23T10:23:37.503Z,285
2016-12-23T10:24:37.010Z,255
2016-12-23T10:25:37.339Z,255
2016-12-23T10:26:37.011Z,270
2016-12-23T10:27:37.480Z,300
2016-12-23T10:28:37.147Z,295
2016-12-23T10:29:37.021Z,285
2016-12-23T10:30:37.141Z,315
2016-12-23T10:31:37.058Z,330
2016-12-23T10:32:37.093Z,355
2016-12-23T10:33:36.989Z,385
2016-12-23T10:34:37.153Z,395
2016-12-23T10:35:37.766Z,395
2016-12-23T10:36:37.074Z,380
2016-12-23T10:37:36.822Z,345
2016-12-23T10:38:37.035Z,310
2016-12-23T10:39:37.024Z,320
2016-12-23T10:40:37.367Z,340
2016-12-23T10:41:37.332Z,335
2016-12-23T10:42:36.787Z,330
2016-12-23T10:43:36.907Z,340
2016-12-23T10:44:37.552Z,380
2016-12-23T10:45:36.896Z,450
2016-12-23T10:46:37.290Z,435
2016-12-23T10:47:38.532Z,430
2016-12-23T10:48:37.012Z,430
2016-12-23T10:49:37.013Z,460
2016-12-23T10:50:36.735Z,505
2016-12-23T10:51:36.732Z,540
2016-12-23T10:52:37.155Z,490
2016-12-23T10:53:36.891Z,450
2016-12-23T10:54:37.006Z,430
2016-12-23T10:55:36.848Z,425
2016-12-23T10:56:36.804Z,420
2016-12-23T10:57:36.798Z,405
2016-12-23T10:58:36.869Z,405
2016-12-23T10:59:37.278Z,415
2016-12-23T11:00:37.110Z,420
2016-12-23T11:01:36.717Z,405
2016-12-23T11:02:37.110Z,370
2016-12-23T11:11:24.707Z,390
2016-12-23T11:11:45.090Z,390
2016-12-23T11:12:45.499Z,390
2016-12-23T11:13:44.624Z,375
2016-12-23T11:14:44.698Z,365
2016-12-23T11:15:44.966Z,375
2016-12-23T11:16:44.799Z,400
2016-12-23T11:17:45.131Z,425
2016-12-23T11:18:45.550Z,435
2016-12-23T11:19:44.859Z,450
2016-12-23T11:20:45.128Z,455
2016-12-23T11:21:45.109Z,465
2016-12-23T11:22:45.096Z,485
2016-12-23T11:23:45.018Z,510
2016-12-23T11:24:44.937Z,540
2016-12-23T11:25:44.664Z,585
2016-12-23T11:26:44.681Z,575
2016-12-23T11:27:44.731Z,555
2016-12-23T11:28:44.673Z,510
2016-12-23T11:29:44.985Z,490
2016-12-23T11:30:44.686Z,520
2016-12-23T11:31:46.285Z,530
2016-12-23T11:32:44.659Z,530
2016-12-23T11:33:44.740Z,520
2016-12-23T11:34:44.885Z,550
2016-12-23T11:35:45.058Z,530
2016-12-23T11:36:44.760Z,500
2016-12-23T11:37:44.666Z,480
2016-12-23T11:38:44.886Z,465
2016-12-23T11:39:44.925Z,460
2016-12-23T11:40:45.047Z,455
2016-12-23T11:41:44.715Z,460
2016-12-23T11:42:44.842Z,465
2016-12-23T11:43:44.955Z,465
2016-12-23T11:44:44.795Z,465
2016-12-23T11:45:45.499Z,465
2016-12-23T11:46:44.804Z,470
2016-12-23T11:47:45.025Z,480
2016-12-23T11:48:44.844Z,480
2016-12-23T11:49:46.293Z,480
2016-12-23T11:50:45.245Z,495
2016-12-23T11:51:45.256Z,505
2016-12-23T11:52:45.061Z,510
2016-12-23T11:53:45.104Z,500
2016-12-23T11:54:45.113Z,480
2016-12-23T11:55:45.293Z,470
2016-12-23T11:56:45.035Z,470
2016-12-23T11:57:46.127Z,475
2016-12-23T11:58:45.594Z,475
2016-12-23T11:59:45.105Z,465
2016-12-23T12:00:45.176Z,460
2016-12-23T12:01:45.063Z,460
2016-12-23T12:02:45.183Z,460
2016-12-23T12:03:44.977Z,460
2016-12-23T12:04:44.886Z,465
2016-12-23T12:05:44.997Z,475
2016-12-23T12:06:44.932Z,480
2016-12-23T12:07:45.039Z,475
2016-12-23T12:08:44.946Z,470
2016-12-23T12:09:44.919Z,470
2016-12-23T12:10:44.790Z,470
2016-12-23T12:11:45.026Z,470
2016-12-23T12:12:45.275Z,475
2016-12-23T12:13:45.001Z,480
2016-12-23T12:14:45.319Z,475
2016-12-23T12:15:45.214Z,475
2016-12-23T12:16:45.088Z,465
2016-12-23T12:17:45.322Z,450
2016-12-23T12:18:46.022Z,450
2016-12-23T12:19:45.425Z,450
2016-12-23T12:20:44.935Z,450
2016-12-23T12:21:45.352Z,440
2016-12-23T12:22:45.403Z,425
2016-12-23T12:23:45.179Z,405
2016-12-23T12:24:45.054Z,390
2016-12-23T12:25:45.776Z,380
2016-12-23T12:26:45.574Z,370
2016-12-23T12:27:45.160Z,360
2016-12-23T12:28:45.072Z,355
2016-12-23T12:29:46.338Z,340
2016-12-23T12:30:45.556Z,325
2016-12-23T12:31:45.266Z,315
2016-12-23T12:32:45.196Z,305
2016-12-23T12:33:46.272Z,300
2016-12-23T12:34:48.227Z,295
2016-12-23T12:35:45.457Z,285
2016-12-23T12:36:45.239Z,280
2016-12-23T12:37:45.380Z,270
2016-12-23T12:38:45.712Z,270
2016-12-23T12:39:45.201Z,260
2016-12-23T12:40:45.956Z,255
2016-12-23T12:41:45.575Z,250
2016-12-23T12:42:45.464Z,245
2016-12-23T12:43:45.289Z,235
2016-12-23T12:44:46.308Z,230
2016-12-23T12:45:45.393Z,220
2016-12-23T12:46:45.689Z,215
2016-12-23T12:47:45.913Z,205
2016-12-23T12:48:45.560Z,200
2016-12-23T12:49:45.057Z,195
2016-12-23T12:50:45.381Z,190
2016-12-23T12:51:45.324Z,185
2016-12-23T12:52:45.475Z,185
2016-12-23T12:53:45.528Z,180
2016-12-23T12:54:45.735Z,180
2016-12-23T12:55:45.584Z,180
2016-12-23T12:56:45.192Z,180
2016-12-23T12:57:45.397Z,185
2016-12-23T12:58:45.353Z,185
2016-12-23T12:59:45.284Z,190
2016-12-23T13:00:45.153Z,190
2016-12-23T13:01:45.365Z,190
2016-12-23T13:02:45.851Z,190
2016-12-23T13:03:45.310Z,190
2016-12-23T13:04:45.193Z,195
2016-12-23T13:05:45.307Z,195
2016-12-23T13:11:02.827Z,200
2016-12-23T13:11:15.300Z,210
2016-12-23T13:12:14.995Z,220
2016-12-23T13:13:15.076Z,220
2016-12-23T13:14:15.660Z,230
2016-12-23T13:15:15.814Z,235
2016-12-23T13:16:14.955Z,235
2016-12-23T13:17:15.310Z,235
2016-12-23T13:18:14.802Z,240
2016-12-23T13:19:15.331Z,245
2016-12-23T13:20:15.103Z,245
2016-12-23T13:21:15.673Z,245
2016-12-23T13:22:15.326Z,245
2016-12-23T13:23:14.543Z,240
2016-12-23T13:24:15.250Z,240
2016-12-23T13:25:14.635Z,230
2016-12-23T13:26:14.885Z,225
2016-12-23T13:27:15.286Z,215
2016-12-23T13:28:15.037Z,215
2016-12-23T13:29:15.154Z,210
2016-12-23T13:30:15.391Z,210
2016-12-23T13:31:14.986Z,215
2016-12-23T13:32:15.237Z,220
2016-12-23T13:33:14.896Z,230
2016-12-23T13:34:14.921Z,235
2016-12-23T13:35:15.631Z,235
2016-12-23T13:36:14.912Z,245
2016-12-23T13:37:15.435Z,245
2016-12-23T13:38:15.398Z,250
2016-12-23T13:39:15.135Z,250
2016-12-23T13:40:15.060Z,250
2016-12-23T13:41:15.031Z,250
2016-12-23T13:42:15.131Z,245
2016-12-23T13:43:15.249Z,245
2016-12-23T13:44:15.125Z,245
2016-12-23T13:45:14.757Z,245
2016-12-23T13:46:14.908Z,245
2016-12-23T13:47:15.147Z,240
2016-12-23T13:48:15.019Z,235
2016-12-23T13:49:15.328Z,230
2016-12-23T13:50:15.115Z,230
2016-12-23T13:51:15.167Z,225
2016-12-23T13:52:15.107Z,225
2016-12-23T13:53:15.886Z,225
2016-12-23T13:54:15.287Z,225
2016-12-23T13:55:15.330Z,230
2016-12-23T13:56:15.503Z,235
2016-12-23T13:57:15.347Z,245
2016-12-23T13:58:15.186Z,245
2016-12-23T13:59:15.297Z,245
2016-12-23T14:00:15.176Z,245
2016-12-23T14:01:15.100Z,245
2016-12-23T14:02:15.424Z,245
2016-12-23T14:03:15.127Z,240
2016-12-23T14:04:15.170Z,235
2016-12-23T14:05:14.991Z,230
2016-12-23T14:06:15.962Z,220
2016-12-23T14:07:15.163Z,215
2016-12-23T14:08:15.694Z,200
2016-12-23T14:09:15.374Z,190
2016-12-23T14:10:16.015Z,185
2016-12-23T14:11:15.095Z,185
2016-12-23T14:12:15.088Z,185
2016-12-23T14:13:14.998Z,190
2016-12-23T14:14:14.875Z,190
2016-12-23T14:15:14.952Z,195
2016-12-23T14:16:15.283Z,195
2016-12-23T14:17:15.286Z,200
